sensor_id;sensor_type;location;lat;lon;timestamp;P1;durP1;ratioP1;P2;durP2;ratioP2
63276;SDS011;49403;51.046;13.780;2022-07-06T00:00:27;5.47;;;3.20;;
63276;SDS011;49403;51.046;13.780;2022-07-06T00:00:57;5.93;;;3.30;;
63276;SDS011;49403;51.046;13.780;2022-07-06T00:01:28;8.88;;;3.70;;
63276;SDS011;49403;51.046;13.780;2022-07-06T00:02:00;5.30;;;3.33;;
63276;SDS011;49403;51.046;13.780;2022-07-06T00:02:32;4.30;;;3.38;;
63276;SDS011;49403;51.046;13.780;2022-07-06T00:03:03;6.75;;;3.28;;
63276;SDS011;49403;51.046;13.780;2022-07-06T00:03:37;4.85;;;3.50;;
63276;SDS011;49403;51.046;13.780;2022-07-06T00:04:10;4.05;;;3.13;;
63276;SDS011;49403;51.046;13.780;2022-07-06T00:04:41;7.03;;;3.50;;
63276;SDS011;49403;51.046;13.780;2022-07-06T00:05:12;5.88;;;3.22;;
63276;SDS011;49403;51.046;13.780;2022-07-06T00:05:43;7.53;;;3.35;;
63276;SDS011;49403;51.046;13.780;2022-07-06T00:06:14;5.93;;;3.47;;
63276;SDS011;49403;51.046;13.780;2022-07-06T00:06:49;5.43;;;3.08;;
63276;SDS011;49403;51.046;13.780;2022-07-06T00:07:20;4.57;;;3.30;;
63276;SDS011;49403;51.046;13.780;2022-07-06T00:07:52;4.30;;;3.17;;
63276;SDS011;49403;51.046;13.780;2022-07-06T00:08:26;4.13;;;3.20;;
63276;SDS011;49403;51.046;13.780;2022-07-06T00:08:57;5.40;;;3.13;;
63276;SDS011;49403;51.046;13.780;2022-07-06T00:09:28;4.93;;;3.00;;
63276;SDS011;49403;51.046;13.780;2022-07-06T00:09:59;4.68;;;3.05;;
63276;SDS011;49403;51.046;13.780;2022-07-06T00:10:30;4.47;;;3.20;;
63276;SDS011;49403;51.046;13.780;2022-07-06T00:11:02;5.60;;;3.20;;
63276;SDS011;49403;51.046;13.780;2022-07-06T00:11:33;9.13;;;3.20;;
63276;SDS011;49403;51.046;13.780;2022-07-06T00:12:06;4.97;;;3.17;;
63276;SDS011;49403;51.046;13.780;2022-07-06T00:12:38;5.55;;;3.10;;
63276;SDS011;49403;51.046;13.780;2022-07-06T00:13:12;4.80;;;3.15;;
63276;SDS011;49403;51.046;13.780;2022-07-06T00:13:45;5.47;;;3.10;;
63276;SDS011;49403;51.046;13.780;2022-07-06T00:14:19;4.25;;;2.97;;
63276;SDS011;49403;51.046;13.780;2022-07-06T00:14:50;6.07;;;3.00;;
63276;SDS011;49403;51.046;13.780;2022-07-06T00:15:21;5.38;;;3.20;;
63276;SDS011;49403;51.046;13.780;2022-07-06T00:15:52;4.07;;;3.10;;
63276;SDS011;49403;51.046;13.780;2022-07-06T00:16:23;3.75;;;3.10;;
63276;SDS011;49403;51.046;13.780;2022-07-06T00:16:54;3.67;;;3.00;;
63276;SDS011;49403;51.046;13.780;2022-07-06T00:17:25;5.68;;;3.00;;
63276;SDS011;49403;51.046;13.780;2022-07-06T00:17:56;5.80;;;3.20;;
63276;SDS011;49403;51.046;13.780;2022-07-06T00:18:27;4.05;;;3.10;;
63276;SDS011;49403;51.046;13.780;2022-07-06T00:18:58;5.10;;;3.17;;
63276;SDS011;49403;51.046;13.780;2022-07-06T00:19:29;5.38;;;3.03;;
63276;SDS011;49403;51.046;13.780;2022-07-06T00:20:00;6.47;;;3.17;;
63276;SDS011;49403;51.046;13.780;2022-07-06T00:20:31;4.50;;;2.90;;
63276;SDS011;49403;51.046;13.780;2022-07-06T00:21:03;4.78;;;3.08;;
63276;SDS011;49403;51.046;13.780;2022-07-06T00:21:34;4.47;;;3.08;;
63276;SDS011;49403;51.046;13.780;2022-07-06T00:22:05;6.22;;;3.13;;
63276;SDS011;49403;51.046;13.780;2022-07-06T00:22:38;5.25;;;3.10;;
63276;SDS011;49403;51.046;13.780;2022-07-06T00:23:10;5.07;;;3.20;;
63276;SDS011;49403;51.046;13.780;2022-07-06T00:23:41;7.07;;;3.13;;
63276;SDS011;49403;51.046;13.780;2022-07-06T00:24:15;4.93;;;3.20;;
63276;SDS011;49403;51.046;13.780;2022-07-06T00:24:48;4.50;;;3.10;;
63276;SDS011;49403;51.046;13.780;2022-07-06T00:25:19;3.58;;;3.20;;
63276;SDS011;49403;51.046;13.780;2022-07-06T00:25:50;4.55;;;3.10;;
63276;SDS011;49403;51.046;13.780;2022-07-06T00:26:21;3.78;;;2.90;;
63276;SDS011;49403;51.046;13.780;2022-07-06T00:26:52;5.97;;;3.28;;
63276;SDS011;49403;51.046;13.780;2022-07-06T00:27:23;4.25;;;3.03;;
63276;SDS011;49403;51.046;13.780;2022-07-06T00:27:54;3.15;;;2.85;;
63276;SDS011;49403;51.046;13.780;2022-07-06T00:28:25;3.88;;;2.90;;
63276;SDS011;49403;51.046;13.780;2022-07-06T00:28:56;3.33;;;3.03;;
63276;SDS011;49403;51.046;13.780;2022-07-06T00:29:27;4.43;;;3.00;;
63276;SDS011;49403;51.046;13.780;2022-07-06T00:30:00;6.35;;;3.22;;
63276;SDS011;49403;51.046;13.780;2022-07-06T00:30:31;5.70;;;3.10;;
63276;SDS011;49403;51.046;13.780;2022-07-06T00:31:02;3.05;;;2.70;;
63276;SDS011;49403;51.046;13.780;2022-07-06T00:31:33;4.95;;;3.10;;
63276;SDS011;49403;51.046;13.780;2022-07-06T00:32:05;3.67;;;2.90;;
63276;SDS011;49403;51.046;13.780;2022-07-06T00:32:36;3.55;;;3.00;;
63276;SDS011;49403;51.046;13.780;2022-07-06T00:33:07;4.45;;;3.00;;
63276;SDS011;49403;51.046;13.780;2022-07-06T00:33:38;4.07;;;3.10;;
63276;SDS011;49403;51.046;13.780;2022-07-06T00:34:09;4.82;;;3.30;;
63276;SDS011;49403;51.046;13.780;2022-07-06T00:34:40;4.20;;;3.13;;
63276;SDS011;49403;51.046;13.780;2022-07-06T00:35:11;9.00;;;3.13;;
63276;SDS011;49403;51.046;13.780;2022-07-06T00:35:42;4.18;;;3.13;;
63276;SDS011;49403;51.046;13.780;2022-07-06T00:36:13;4.28;;;3.00;;
63276;SDS011;49403;51.046;13.780;2022-07-06T00:36:45;4.38;;;3.15;;
63276;SDS011;49403;51.046;13.780;2022-07-06T00:37:15;3.88;;;3.10;;
63276;SDS011;49403;51.046;13.780;2022-07-06T00:37:47;4.93;;;3.30;;
63276;SDS011;49403;51.046;13.780;2022-07-06T00:38:17;4.95;;;3.20;;
63276;SDS011;49403;51.046;13.780;2022-07-06T00:38:51;3.40;;;3.10;;
63276;SDS011;49403;51.046;13.780;2022-07-06T00:39:22;3.63;;;2.97;;
63276;SDS011;49403;51.046;13.780;2022-07-06T00:39:59;3.65;;;3.25;;
63276;SDS011;49403;51.046;13.780;2022-07-06T00:40:30;3.28;;;2.97;;
63276;SDS011;49403;51.046;13.780;2022-07-06T00:41:01;4.50;;;3.10;;
63276;SDS011;49403;51.046;13.780;2022-07-06T00:41:32;5.45;;;3.20;;
63276;SDS011;49403;51.046;13.780;2022-07-06T00:42:05;3.75;;;3.10;;
63276;SDS011;49403;51.046;13.780;2022-07-06T00:42:40;3.97;;;3.20;;
63276;SDS011;49403;51.046;13.780;2022-07-06T00:43:15;5.53;;;3.20;;
63276;SDS011;49403;51.046;13.780;2022-07-06T00:43:47;4.75;;;3.60;;
63276;SDS011;49403;51.046;13.780;2022-07-06T00:44:25;4.15;;;3.20;;
63276;SDS011;49403;51.046;13.780;2022-07-06T00:44:58;5.35;;;3.20;;
63276;SDS011;49403;51.046;13.780;2022-07-06T00:45:30;5.20;;;3.20;;
63276;SDS011;49403;51.046;13.780;2022-07-06T00:46:01;6.20;;;3.60;;
63276;SDS011;49403;51.046;13.780;2022-07-06T00:46:32;4.45;;;3.25;;
63276;SDS011;49403;51.046;13.780;2022-07-06T00:47:04;4.18;;;3.00;;
63276;SDS011;49403;51.046;13.780;2022-07-06T00:47:35;3.65;;;3.15;;
63276;SDS011;49403;51.046;13.780;2022-07-06T00:48:06;5.30;;;3.40;;
63276;SDS011;49403;51.046;13.780;2022-07-06T00:48:37;3.85;;;3.10;;
63276;SDS011;49403;51.046;13.780;2022-07-06T00:49:11;8.50;;;3.47;;
63276;SDS011;49403;51.046;13.780;2022-07-06T00:50:02;5.22;;;3.30;;
63276;SDS011;49403;51.046;13.780;2022-07-06T00:50:52;12.75;;;3.60;;
63276;SDS011;49403;51.046;13.780;2022-07-06T00:51:24;4.65;;;3.33;;
63276;SDS011;49403;51.046;13.780;2022-07-06T00:52:00;4.20;;;3.08;;
63276;SDS011;49403;51.046;13.780;2022-07-06T00:52:31;4.68;;;3.20;;
63276;SDS011;49403;51.046;13.780;2022-07-06T00:53:03;5.53;;;3.15;;
63276;SDS011;49403;51.046;13.780;2022-07-06T00:53:36;3.88;;;3.10;;
63276;SDS011;49403;51.046;13.780;2022-07-06T00:54:11;5.65;;;3.15;;
63276;SDS011;49403;51.046;13.780;2022-07-06T00:54:41;3.58;;;3.00;;
63276;SDS011;49403;51.046;13.780;2022-07-06T00:55:14;3.67;;;3.05;;
63276;SDS011;49403;51.046;13.780;2022-07-06T00:55:49;4.22;;;2.83;;
63276;SDS011;49403;51.046;13.780;2022-07-06T00:56:20;3.30;;;3.00;;
63276;SDS011;49403;51.046;13.780;2022-07-06T00:56:52;4.32;;;3.15;;
63276;SDS011;49403;51.046;13.780;2022-07-06T00:57:23;5.50;;;3.10;;
63276;SDS011;49403;51.046;13.780;2022-07-06T00:57:54;3.72;;;2.92;;
63276;SDS011;49403;51.046;13.780;2022-07-06T00:58:25;4.03;;;3.40;;
63276;SDS011;49403;51.046;13.780;2022-07-06T00:58:57;4.63;;;2.97;;
63276;SDS011;49403;51.046;13.780;2022-07-06T00:59:31;3.50;;;2.95;;
63276;SDS011;49403;51.046;13.780;2022-07-06T01:00:03;3.45;;;3.00;;
63276;SDS011;49403;51.046;13.780;2022-07-06T01:00:36;4.43;;;2.90;;
63276;SDS011;49403;51.046;13.780;2022-07-06T01:01:07;3.65;;;2.80;;
63276;SDS011;49403;51.046;13.780;2022-07-06T01:01:38;3.25;;;2.95;;
63276;SDS011;49403;51.046;13.780;2022-07-06T01:02:09;3.72;;;3.10;;
63276;SDS011;49403;51.046;13.780;2022-07-06T01:02:40;3.45;;;2.88;;
63276;SDS011;49403;51.046;13.780;2022-07-06T01:03:12;6.38;;;2.92;;
63276;SDS011;49403;51.046;13.780;2022-07-06T01:03:45;3.65;;;3.00;;
63276;SDS011;49403;51.046;13.780;2022-07-06T01:04:20;3.83;;;2.78;;
63276;SDS011;49403;51.046;13.780;2022-07-06T01:04:50;3.42;;;3.00;;
63276;SDS011;49403;51.046;13.780;2022-07-06T01:05:24;9.02;;;3.10;;
63276;SDS011;49403;51.046;13.780;2022-07-06T01:05:58;4.47;;;3.00;;
63276;SDS011;49403;51.046;13.780;2022-07-06T01:06:30;4.72;;;3.20;;
63276;SDS011;49403;51.046;13.780;2022-07-06T01:07:01;4.32;;;3.08;;
63276;SDS011;49403;51.046;13.780;2022-07-06T01:07:32;4.15;;;3.17;;
63276;SDS011;49403;51.046;13.780;2022-07-06T01:08:04;4.13;;;3.10;;
63276;SDS011;49403;51.046;13.780;2022-07-06T01:08:35;3.45;;;2.90;;
63276;SDS011;49403;51.046;13.780;2022-07-06T01:09:06;3.15;;;2.85;;
63276;SDS011;49403;51.046;13.780;2022-07-06T01:09:37;4.28;;;2.97;;
63276;SDS011;49403;51.046;13.780;2022-07-06T01:10:09;3.20;;;2.90;;
63276;SDS011;49403;51.046;13.780;2022-07-06T01:10:41;9.07;;;3.42;;
63276;SDS011;49403;51.046;13.780;2022-07-06T01:11:12;4.90;;;3.10;;
63276;SDS011;49403;51.046;13.780;2022-07-06T01:11:45;3.72;;;3.03;;
63276;SDS011;49403;51.046;13.780;2022-07-06T01:12:19;5.78;;;3.35;;
63276;SDS011;49403;51.046;13.780;2022-07-06T01:12:50;3.90;;;3.30;;
63276;SDS011;49403;51.046;13.780;2022-07-06T01:13:21;4.63;;;3.20;;
63276;SDS011;49403;51.046;13.780;2022-07-06T01:13:55;4.13;;;3.22;;
63276;SDS011;49403;51.046;13.780;2022-07-06T01:14:27;5.70;;;3.08;;
63276;SDS011;49403;51.046;13.780;2022-07-06T01:15:02;4.03;;;2.78;;
63276;SDS011;49403;51.046;13.780;2022-07-06T01:15:34;4.30;;;2.90;;
63276;SDS011;49403;51.046;13.780;2022-07-06T01:16:08;5.47;;;3.20;;
63276;SDS011;49403;51.046;13.780;2022-07-06T01:16:39;4.97;;;3.10;;
63276;SDS011;49403;51.046;13.780;2022-07-06T01:17:10;3.95;;;2.83;;
63276;SDS011;49403;51.046;13.780;2022-07-06T01:17:43;3.65;;;2.97;;
63276;SDS011;49403;51.046;13.780;2022-07-06T01:18:14;5.10;;;3.20;;
63276;SDS011;49403;51.046;13.780;2022-07-06T01:18:45;4.22;;;3.10;;
63276;SDS011;49403;51.046;13.780;2022-07-06T01:19:17;4.72;;;3.10;;
63276;SDS011;49403;51.046;13.780;2022-07-06T01:19:47;5.43;;;3.05;;
63276;SDS011;49403;51.046;13.780;2022-07-06T01:20:22;3.50;;;3.20;;
63276;SDS011;49403;51.046;13.780;2022-07-06T01:21:07;4.47;;;3.50;;
63276;SDS011;49403;51.046;13.780;2022-07-06T01:21:40;4.60;;;3.20;;
63276;SDS011;49403;51.046;13.780;2022-07-06T01:22:11;5.00;;;3.00;;
63276;SDS011;49403;51.046;13.780;2022-07-06T01:22:42;3.85;;;3.20;;
63276;SDS011;49403;51.046;13.780;2022-07-06T01:23:14;4.70;;;3.20;;
63276;SDS011;49403;51.046;13.780;2022-07-06T01:23:46;5.25;;;3.40;;
63276;SDS011;49403;51.046;13.780;2022-07-06T01:24:17;4.07;;;3.20;;
63276;SDS011;49403;51.046;13.780;2022-07-06T01:24:48;4.50;;;3.30;;
63276;SDS011;49403;51.046;13.780;2022-07-06T01:25:19;4.45;;;3.35;;
63276;SDS011;49403;51.046;13.780;2022-07-06T01:25:51;3.45;;;3.15;;
63276;SDS011;49403;51.046;13.780;2022-07-06T01:26:25;5.32;;;3.20;;
63276;SDS011;49403;51.046;13.780;2022-07-06T01:26:56;3.22;;;2.92;;
63276;SDS011;49403;51.046;13.780;2022-07-06T01:27:27;4.20;;;3.20;;
63276;SDS011;49403;51.046;13.780;2022-07-06T01:27:59;6.75;;;3.53;;
63276;SDS011;49403;51.046;13.780;2022-07-06T01:28:30;4.43;;;3.08;;
63276;SDS011;49403;51.046;13.780;2022-07-06T01:29:01;5.45;;;3.40;;
63276;SDS011;49403;51.046;13.780;2022-07-06T01:29:32;5.35;;;3.30;;
63276;SDS011;49403;51.046;13.780;2022-07-06T01:30:14;4.35;;;3.33;;
63276;SDS011;49403;51.046;13.780;2022-07-06T01:30:46;5.75;;;3.28;;
63276;SDS011;49403;51.046;13.780;2022-07-06T01:31:19;3.83;;;3.10;;
63276;SDS011;49403;51.046;13.780;2022-07-06T01:31:51;5.07;;;3.50;;
63276;SDS011;49403;51.046;13.780;2022-07-06T01:32:22;3.95;;;3.30;;
63276;SDS011;49403;51.046;13.780;2022-07-06T01:32:53;3.60;;;3.30;;
63276;SDS011;49403;51.046;13.780;2022-07-06T01:33:24;6.35;;;3.50;;
63276;SDS011;49403;51.046;13.780;2022-07-06T01:33:55;6.30;;;3.30;;
63276;SDS011;49403;51.046;13.780;2022-07-06T01:34:27;6.05;;;3.30;;
63276;SDS011;49403;51.046;13.780;2022-07-06T01:34:59;4.40;;;3.30;;
63276;SDS011;49403;51.046;13.780;2022-07-06T01:35:33;4.10;;;3.40;;
63276;SDS011;49403;51.046;13.780;2022-07-06T01:36:08;4.53;;;3.45;;
63276;SDS011;49403;51.046;13.780;2022-07-06T01:36:39;4.07;;;3.30;;
63276;SDS011;49403;51.046;13.780;2022-07-06T01:37:10;4.30;;;3.38;;
63276;SDS011;49403;51.046;13.780;2022-07-06T01:37:41;4.90;;;3.40;;
63276;SDS011;49403;51.046;13.780;2022-07-06T01:38:13;5.13;;;3.40;;
63276;SDS011;49403;51.046;13.780;2022-07-06T01:38:44;7.15;;;3.10;;
63276;SDS011;49403;51.046;13.780;2022-07-06T01:39:19;6.82;;;3.30;;
63276;SDS011;49403;51.046;13.780;2022-07-06T01:39:51;5.07;;;3.55;;
63276;SDS011;49403;51.046;13.780;2022-07-06T01:40:21;3.72;;;3.20;;
63276;SDS011;49403;51.046;13.780;2022-07-06T01:40:53;5.25;;;3.20;;
63276;SDS011;49403;51.046;13.780;2022-07-06T01:41:24;7.30;;;3.53;;
63276;SDS011;49403;51.046;13.780;2022-07-06T01:41:55;3.30;;;3.00;;
63276;SDS011;49403;51.046;13.780;2022-07-06T01:42:29;4.38;;;3.30;;
63276;SDS011;49403;51.046;13.780;2022-07-06T01:43:01;3.70;;;3.20;;
63276;SDS011;49403;51.046;13.780;2022-07-06T01:43:31;7.65;;;3.38;;
63276;SDS011;49403;51.046;13.780;2022-07-06T01:44:02;6.20;;;3.30;;
63276;SDS011;49403;51.046;13.780;2022-07-06T01:44:34;4.47;;;3.30;;
63276;SDS011;49403;51.046;13.780;2022-07-06T01:45:05;3.95;;;2.83;;
63276;SDS011;49403;51.046;13.780;2022-07-06T01:45:37;5.13;;;3.10;;
63276;SDS011;49403;51.046;13.780;2022-07-06T01:46:08;3.75;;;3.05;;
63276;SDS011;49403;51.046;13.780;2022-07-06T01:46:42;3.90;;;3.38;;
63276;SDS011;49403;51.046;13.780;2022-07-06T01:47:13;4.18;;;3.30;;
63276;SDS011;49403;51.046;13.780;2022-07-06T01:47:44;7.20;;;3.10;;
63276;SDS011;49403;51.046;13.780;2022-07-06T01:48:15;3.78;;;3.40;;
63276;SDS011;49403;51.046;13.780;2022-07-06T01:48:49;6.10;;;3.33;;
63276;SDS011;49403;51.046;13.780;2022-07-06T01:49:20;3.38;;;3.10;;
63276;SDS011;49403;51.046;13.780;2022-07-06T01:49:54;3.92;;;3.20;;
63276;SDS011;49403;51.046;13.780;2022-07-06T01:50:27;4.55;;;3.00;;
63276;SDS011;49403;51.046;13.780;2022-07-06T01:50:58;3.92;;;3.10;;
63276;SDS011;49403;51.046;13.780;2022-07-06T01:51:30;3.50;;;3.17;;
63276;SDS011;49403;51.046;13.780;2022-07-06T01:52:01;3.47;;;3.10;;
63276;SDS011;49403;51.046;13.780;2022-07-06T01:52:32;4.65;;;3.40;;
63276;SDS011;49403;51.046;13.780;2022-07-06T01:53:03;4.97;;;3.13;;
63276;SDS011;49403;51.046;13.780;2022-07-06T01:53:34;4.47;;;3.50;;
63276;SDS011;49403;51.046;13.780;2022-07-06T01:54:05;3.60;;;3.20;;
63276;SDS011;49403;51.046;13.780;2022-07-06T01:54:36;5.85;;;3.30;;
63276;SDS011;49403;51.046;13.780;2022-07-06T01:55:10;4.00;;;3.30;;
63276;SDS011;49403;51.046;13.780;2022-07-06T01:55:40;4.35;;;3.30;;
63276;SDS011;49403;51.046;13.780;2022-07-06T01:56:12;4.00;;;3.20;;
63276;SDS011;49403;51.046;13.780;2022-07-06T01:56:43;3.95;;;3.30;;
63276;SDS011;49403;51.046;13.780;2022-07-06T01:57:14;4.65;;;3.38;;
63276;SDS011;49403;51.046;13.780;2022-07-06T01:57:45;4.43;;;3.20;;
63276;SDS011;49403;51.046;13.780;2022-07-06T01:58:16;5.00;;;3.50;;
63276;SDS011;49403;51.046;13.780;2022-07-06T01:58:49;4.07;;;3.45;;
63276;SDS011;49403;51.046;13.780;2022-07-06T01:59:20;4.85;;;3.33;;
63276;SDS011;49403;51.046;13.780;2022-07-06T01:59:51;6.38;;;3.33;;
63276;SDS011;49403;51.046;13.780;2022-07-06T02:00:22;4.45;;;3.33;;
63276;SDS011;49403;51.046;13.780;2022-07-06T02:00:53;4.57;;;3.42;;
63276;SDS011;49403;51.046;13.780;2022-07-06T02:01:24;5.43;;;3.40;;
63276;SDS011;49403;51.046;13.780;2022-07-06T02:01:55;5.25;;;3.13;;
63276;SDS011;49403;51.046;13.780;2022-07-06T02:02:26;3.83;;;3.20;;
63276;SDS011;49403;51.046;13.780;2022-07-06T02:02:56;6.63;;;3.42;;
63276;SDS011;49403;51.046;13.780;2022-07-06T02:03:27;5.13;;;3.47;;
63276;SDS011;49403;51.046;13.780;2022-07-06T02:03:58;3.47;;;3.15;;
63276;SDS011;49403;51.046;13.780;2022-07-06T02:04:29;6.28;;;3.47;;
63276;SDS011;49403;51.046;13.780;2022-07-06T02:05:00;4.72;;;3.50;;
63276;SDS011;49403;51.046;13.780;2022-07-06T02:05:31;5.68;;;3.30;;
63276;SDS011;49403;51.046;13.780;2022-07-06T02:06:03;8.52;;;3.60;;
63276;SDS011;49403;51.046;13.780;2022-07-06T02:06:34;4.63;;;3.30;;
63276;SDS011;49403;51.046;13.780;2022-07-06T02:07:05;4.30;;;3.30;;
63276;SDS011;49403;51.046;13.780;2022-07-06T02:07:36;4.47;;;3.60;;
63276;SDS011;49403;51.046;13.780;2022-07-06T02:08:07;4.57;;;3.30;;
63276;SDS011;49403;51.046;13.780;2022-07-06T02:08:38;4.65;;;3.40;;
63276;SDS011;49403;51.046;13.780;2022-07-06T02:09:10;4.00;;;3.25;;
63276;SDS011;49403;51.046;13.780;2022-07-06T02:09:40;7.70;;;3.50;;
63276;SDS011;49403;51.046;13.780;2022-07-06T02:10:11;3.88;;;3.38;;
63276;SDS011;49403;51.046;13.780;2022-07-06T02:10:42;4.78;;;3.50;;
63276;SDS011;49403;51.046;13.780;2022-07-06T02:11:13;3.40;;;3.10;;
63276;SDS011;49403;51.046;13.780;2022-07-06T02:11:44;4.18;;;3.20;;
63276;SDS011;49403;51.046;13.780;2022-07-06T02:12:15;6.90;;;3.50;;
63276;SDS011;49403;51.046;13.780;2022-07-06T02:12:46;3.83;;;3.42;;
63276;SDS011;49403;51.046;13.780;2022-07-06T02:13:17;4.75;;;3.30;;
63276;SDS011;49403;51.046;13.780;2022-07-06T02:13:48;5.22;;;3.30;;
63276;SDS011;49403;51.046;13.780;2022-07-06T02:14:19;4.85;;;3.30;;
63276;SDS011;49403;51.046;13.780;2022-07-06T02:14:50;5.45;;;3.40;;
63276;SDS011;49403;51.046;13.780;2022-07-06T02:15:21;4.50;;;3.63;;
63276;SDS011;49403;51.046;13.780;2022-07-06T02:15:52;4.13;;;3.40;;
63276;SDS011;49403;51.046;13.780;2022-07-06T02:16:23;4.63;;;3.60;;
63276;SDS011;49403;51.046;13.780;2022-07-06T02:16:54;5.90;;;3.50;;
63276;SDS011;49403;51.046;13.780;2022-07-06T02:17:25;5.70;;;3.50;;
63276;SDS011;49403;51.046;13.780;2022-07-06T02:17:56;4.88;;;3.40;;
63276;SDS011;49403;51.046;13.780;2022-07-06T02:18:27;4.05;;;3.40;;
63276;SDS011;49403;51.046;13.780;2022-07-06T02:18:58;5.43;;;3.63;;
63276;SDS011;49403;51.046;13.780;2022-07-06T02:19:29;5.05;;;3.50;;
63276;SDS011;49403;51.046;13.780;2022-07-06T02:20:00;5.93;;;3.63;;
63276;SDS011;49403;51.046;13.780;2022-07-06T02:20:31;4.07;;;3.50;;
63276;SDS011;49403;51.046;13.780;2022-07-06T02:21:03;5.05;;;3.55;;
63276;SDS011;49403;51.046;13.780;2022-07-06T02:21:34;4.43;;;3.70;;
63276;SDS011;49403;51.046;13.780;2022-07-06T02:22:05;5.60;;;3.83;;
63276;SDS011;49403;51.046;13.780;2022-07-06T02:22:36;5.93;;;3.70;;
63276;SDS011;49403;51.046;13.780;2022-07-06T02:23:07;5.53;;;4.00;;
63276;SDS011;49403;51.046;13.780;2022-07-06T02:23:38;4.88;;;3.90;;
63276;SDS011;49403;51.046;13.780;2022-07-06T02:24:09;6.20;;;3.90;;
63276;SDS011;49403;51.046;13.780;2022-07-06T02:24:40;4.80;;;3.80;;
63276;SDS011;49403;51.046;13.780;2022-07-06T02:25:11;6.60;;;4.00;;
63276;SDS011;49403;51.046;13.780;2022-07-06T02:25:42;5.80;;;3.70;;
63276;SDS011;49403;51.046;13.780;2022-07-06T02:26:12;4.40;;;3.75;;
63276;SDS011;49403;51.046;13.780;2022-07-06T02:26:43;5.80;;;3.92;;
63276;SDS011;49403;51.046;13.780;2022-07-06T02:27:14;6.18;;;3.90;;
63276;SDS011;49403;51.046;13.780;2022-07-06T02:27:45;5.90;;;3.83;;
63276;SDS011;49403;51.046;13.780;2022-07-06T02:28:16;5.05;;;4.00;;
63276;SDS011;49403;51.046;13.780;2022-07-06T02:28:46;6.40;;;3.75;;
63276;SDS011;49403;51.046;13.780;2022-07-06T02:29:17;5.10;;;3.90;;
63276;SDS011;49403;51.046;13.780;2022-07-06T02:29:49;5.28;;;3.80;;
63276;SDS011;49403;51.046;13.780;2022-07-06T02:30:20;5.80;;;3.92;;
63276;SDS011;49403;51.046;13.780;2022-07-06T02:30:51;4.80;;;3.97;;
63276;SDS011;49403;51.046;13.780;2022-07-06T02:31:22;5.82;;;3.90;;
63276;SDS011;49403;51.046;13.780;2022-07-06T02:31:53;5.38;;;3.83;;
63276;SDS011;49403;51.046;13.780;2022-07-06T02:32:23;4.22;;;3.80;;
63276;SDS011;49403;51.046;13.780;2022-07-06T02:32:55;5.07;;;3.80;;
63276;SDS011;49403;51.046;13.780;2022-07-06T02:33:25;4.40;;;3.63;;
63276;SDS011;49403;51.046;13.780;2022-07-06T02:33:56;4.13;;;3.70;;
63276;SDS011;49403;51.046;13.780;2022-07-06T02:34:27;5.07;;;4.10;;
63276;SDS011;49403;51.046;13.780;2022-07-06T02:35:00;7.18;;;3.85;;
63276;SDS011;49403;51.046;13.780;2022-07-06T02:35:30;7.25;;;4.20;;
63276;SDS011;49403;51.046;13.780;2022-07-06T02:36:01;4.82;;;3.90;;
63276;SDS011;49403;51.046;13.780;2022-07-06T02:36:32;6.15;;;3.85;;
63276;SDS011;49403;51.046;13.780;2022-07-06T02:37:03;5.47;;;3.67;;
63276;SDS011;49403;51.046;13.780;2022-07-06T02:37:34;4.88;;;3.80;;
63276;SDS011;49403;51.046;13.780;2022-07-06T02:38:04;5.18;;;3.90;;
63276;SDS011;49403;51.046;13.780;2022-07-06T02:38:35;4.30;;;3.67;;
63276;SDS011;49403;51.046;13.780;2022-07-06T02:39:06;4.78;;;3.63;;
63276;SDS011;49403;51.046;13.780;2022-07-06T02:39:37;6.15;;;3.78;;
63276;SDS011;49403;51.046;13.780;2022-07-06T02:40:07;6.72;;;3.92;;
63276;SDS011;49403;51.046;13.780;2022-07-06T02:40:39;10.40;;;3.63;;
63276;SDS011;49403;51.046;13.780;2022-07-06T02:41:10;7.80;;;3.88;;
63276;SDS011;49403;51.046;13.780;2022-07-06T02:41:44;6.53;;;3.83;;
63276;SDS011;49403;51.046;13.780;2022-07-06T02:42:15;5.75;;;3.80;;
63276;SDS011;49403;51.046;13.780;2022-07-06T02:42:46;5.22;;;3.92;;
63276;SDS011;49403;51.046;13.780;2022-07-06T02:43:17;6.35;;;4.07;;
63276;SDS011;49403;51.046;13.780;2022-07-06T02:43:48;6.28;;;3.78;;
63276;SDS011;49403;51.046;13.780;2022-07-06T02:44:19;5.38;;;3.72;;
63276;SDS011;49403;51.046;13.780;2022-07-06T02:44:51;4.53;;;3.63;;
63276;SDS011;49403;51.046;13.780;2022-07-06T02:45:23;4.78;;;3.40;;
63276;SDS011;49403;51.046;13.780;2022-07-06T02:45:54;6.88;;;3.60;;
63276;SDS011;49403;51.046;13.780;2022-07-06T02:46:25;5.43;;;3.65;;
63276;SDS011;49403;51.046;13.780;2022-07-06T02:46:56;6.15;;;3.47;;
63276;SDS011;49403;51.046;13.780;2022-07-06T02:47:27;4.57;;;3.58;;
63276;SDS011;49403;51.046;13.780;2022-07-06T02:47:58;6.95;;;3.90;;
63276;SDS011;49403;51.046;13.780;2022-07-06T02:48:29;6.75;;;3.50;;
63276;SDS011;49403;51.046;13.780;2022-07-06T02:49:00;4.97;;;3.72;;
63276;SDS011;49403;51.046;13.780;2022-07-06T02:49:31;7.28;;;3.20;;
63276;SDS011;49403;51.046;13.780;2022-07-06T02:50:02;4.78;;;3.33;;
63276;SDS011;49403;51.046;13.780;2022-07-06T02:50:34;6.93;;;3.40;;
63276;SDS011;49403;51.046;13.780;2022-07-06T02:51:05;5.15;;;3.45;;
63276;SDS011;49403;51.046;13.780;2022-07-06T02:51:36;4.25;;;3.60;;
63276;SDS011;49403;51.046;13.780;2022-07-06T02:52:07;4.32;;;3.50;;
63276;SDS011;49403;51.046;13.780;2022-07-06T02:52:38;6.07;;;3.53;;
63276;SDS011;49403;51.046;13.780;2022-07-06T02:53:08;7.50;;;3.70;;
63276;SDS011;49403;51.046;13.780;2022-07-06T02:53:39;5.53;;;3.70;;
63276;SDS011;49403;51.046;13.780;2022-07-06T02:54:10;5.55;;;3.55;;
63276;SDS011;49403;51.046;13.780;2022-07-06T02:54:44;8.68;;;4.35;;
63276;SDS011;49403;51.046;13.780;2022-07-06T02:55:18;7.05;;;3.97;;
63276;SDS011;49403;51.046;13.780;2022-07-06T02:55:49;4.30;;;3.67;;
63276;SDS011;49403;51.046;13.780;2022-07-06T02:56:20;6.60;;;3.90;;
63276;SDS011;49403;51.046;13.780;2022-07-06T02:56:51;5.75;;;3.55;;
63276;SDS011;49403;51.046;13.780;2022-07-06T02:57:23;7.57;;;3.80;;
63276;SDS011;49403;51.046;13.780;2022-07-06T02:57:54;4.63;;;3.70;;
63276;SDS011;49403;51.046;13.780;2022-07-06T02:58:25;5.63;;;3.90;;
63276;SDS011;49403;51.046;13.780;2022-07-06T02:58:56;5.13;;;3.83;;
63276;SDS011;49403;51.046;13.780;2022-07-06T02:59:27;4.28;;;3.70;;
63276;SDS011;49403;51.046;13.780;2022-07-06T02:59:58;5.97;;;3.83;;
63276;SDS011;49403;51.046;13.780;2022-07-06T03:00:29;5.53;;;3.72;;
63276;SDS011;49403;51.046;13.780;2022-07-06T03:01:00;7.50;;;3.95;;
63276;SDS011;49403;51.046;13.780;2022-07-06T03:01:31;8.38;;;3.88;;
63276;SDS011;49403;51.046;13.780;2022-07-06T03:02:02;7.00;;;3.80;;
63276;SDS011;49403;51.046;13.780;2022-07-06T03:02:34;4.35;;;3.42;;
63276;SDS011;49403;51.046;13.780;2022-07-06T03:03:05;4.57;;;3.67;;
63276;SDS011;49403;51.046;13.780;2022-07-06T03:03:37;7.75;;;3.80;;
63276;SDS011;49403;51.046;13.780;2022-07-06T03:04:08;6.20;;;3.90;;
63276;SDS011;49403;51.046;13.780;2022-07-06T03:04:39;6.45;;;4.18;;
63276;SDS011;49403;51.046;13.780;2022-07-06T03:05:10;6.70;;;4.10;;
63276;SDS011;49403;51.046;13.780;2022-07-06T03:05:41;4.43;;;3.67;;
63276;SDS011;49403;51.046;13.780;2022-07-06T03:06:12;4.93;;;3.63;;
63276;SDS011;49403;51.046;13.780;2022-07-06T03:06:43;5.13;;;3.92;;
63276;SDS011;49403;51.046;13.780;2022-07-06T03:07:14;6.43;;;3.92;;
63276;SDS011;49403;51.046;13.780;2022-07-06T03:07:45;5.38;;;4.05;;
63276;SDS011;49403;51.046;13.780;2022-07-06T03:08:16;5.70;;;3.95;;